createdAt,value
2022-11-23T00:02:19.496Z,94072.84
2022-11-23T00:06:04.420Z,94069.03
2022-11-23T00:09:47.107Z,94078.84
2022-11-23T00:13:29.906Z,94078.84
2022-11-23T00:17:12.584Z,94077.66
2022-11-23T00:20:55.236Z,94079.44
2022-11-23T00:24:39.267Z,94077.25
2022-11-23T00:28:21.957Z,94077.44
2022-11-23T00:32:05.011Z,94078.03
2022-11-23T00:35:48.042Z,94086.69
2022-11-23T00:39:30.876Z,94077.25
2022-11-23T00:43:15.075Z,94074.84
2022-11-23T00:46:57.805Z,94076.84
2022-11-23T00:50:40.424Z,94078.84
2022-11-23T00:54:23.079Z,94074.03
2022-11-23T00:58:05.854Z,94069.84
2022-11-23T01:01:50.183Z,94073.44
2022-11-23T01:05:37.285Z,94068.63
2022-11-23T01:09:24.938Z,94066.03
2022-11-23T01:13:07.671Z,94077.25
2022-11-23T01:16:51.916Z,94077.66
2022-11-23T01:20:35.915Z,94075.25
2022-11-23T01:24:20.250Z,94089.47
2022-11-23T01:28:02.934Z,94089.88
2022-11-23T01:31:47.000Z,94080.25
2022-11-23T01:35:31.224Z,94080.06
2022-11-23T01:39:14.222Z,94086.28
2022-11-23T01:42:58.234Z,94084.06
2022-11-23T01:46:40.947Z,94095.69
2022-11-23T01:50:23.559Z,94090.47
2022-11-23T01:54:10.451Z,94103.09
2022-11-23T01:57:53.182Z,94105.28
2022-11-23T02:01:35.983Z,94107.91
2022-11-23T02:05:20.129Z,94107.09
2022-11-23T02:09:03.214Z,94102.88
2022-11-23T02:12:47.320Z,94110.91
2022-11-23T02:16:30.484Z,94105.69
2022-11-23T02:20:17.689Z,94100.88
2022-11-23T02:24:02.990Z,94108.47
2022-11-23T02:27:47.331Z,94101.66
2022-11-23T02:31:30.217Z,94089.19
2022-11-23T02:35:13.462Z,94095.19
2022-11-23T02:38:56.358Z,94101.19
2022-11-23T02:42:39.045Z,94101.56
2022-11-23T02:46:23.110Z,94100.75
2022-11-23T02:50:06.422Z,94099.94
2022-11-23T02:53:52.094Z,94091.91
2022-11-23T02:57:34.742Z,94099.13
2022-11-23T03:01:17.553Z,94104.09
2022-11-23T03:05:01.693Z,94097.06
2022-11-23T03:08:44.375Z,94107.06
2022-11-23T03:12:27.097Z,94103.06
2022-11-23T03:16:10.459Z,94103.41
2022-11-23T03:19:53.138Z,94107.00
2022-11-23T03:23:37.908Z,94102.19
2022-11-23T03:27:20.520Z,94107.38
2022-11-23T03:31:03.212Z,94115.19
2022-11-23T03:34:45.905Z,94112.22
2022-11-23T03:38:28.742Z,94108.59
2022-11-23T03:42:12.725Z,94106.19
2022-11-23T03:45:55.373Z,94106.59
2022-11-23T03:49:40.394Z,94099.59
2022-11-23T03:53:23.015Z,94099.00
2022-11-23T03:57:05.646Z,94092.66
2022-11-23T04:00:49.746Z,94101.84
2022-11-23T04:04:32.581Z,94095.25
2022-11-23T04:08:15.233Z,94095.06
2022-11-23T04:11:57.866Z,94096.59
2022-11-23T04:15:40.544Z,94097.00
2022-11-23T04:19:24.676Z,94098.38
2022-11-23T04:23:12.836Z,94090.16
2022-11-23T04:26:56.363Z,94095.75
2022-11-23T04:30:38.978Z,94091.91
2022-11-23T04:34:21.782Z,94097.31
2022-11-23T04:38:05.815Z,94094.50
2022-11-23T04:41:48.460Z,94093.25
2022-11-23T04:45:31.105Z,94100.06
2022-11-23T04:49:13.874Z,94092.88
2022-11-23T04:52:56.486Z,94086.06
2022-11-23T04:56:40.440Z,94086.69
2022-11-23T05:00:23.186Z,94081.28
2022-11-23T05:04:06.313Z,94089.09
2022-11-23T05:07:49.039Z,94072.91
2022-11-23T05:11:31.755Z,94076.94
2022-11-23T05:15:15.842Z,94081.38
2022-11-23T05:18:58.561Z,94073.81
2022-11-23T05:22:41.344Z,94075.03
2022-11-23T05:26:24.030Z,94078.25
2022-11-23T05:30:07.801Z,94078.84
2022-11-23T05:33:51.745Z,94070.25
2022-11-23T05:37:34.743Z,94072.06
2022-11-23T05:41:17.346Z,94071.06
2022-11-23T05:45:00.010Z,94072.66
2022-11-23T05:48:42.715Z,94074.69
2022-11-23T05:52:27.376Z,94076.69
2022-11-23T05:56:10.026Z,94072.69
2022-11-23T05:59:52.981Z,94073.88
2022-11-23T06:03:35.626Z,94074.69
2022-11-23T06:07:18.347Z,94067.06
2022-11-23T06:11:02.959Z,94070.28
2022-11-23T06:14:45.582Z,94066.88
2022-11-23T06:18:28.244Z,94063.47
2022-11-23T06:22:10.870Z,94066.66
2022-11-23T06:25:53.510Z,94068.50
2022-11-23T06:29:37.486Z,94070.31
2022-11-23T06:33:20.117Z,94067.50
2022-11-23T06:37:02.924Z,94069.50
2022-11-23T06:40:45.569Z,94081.53
2022-11-23T06:44:28.245Z,94079.34
2022-11-23T06:48:12.298Z,94080.53
2022-11-23T06:51:54.913Z,94080.75
2022-11-23T06:55:37.582Z,94086.78
2022-11-23T06:59:20.335Z,94088.00
2022-11-23T07:03:03.165Z,94090.81
2022-11-23T07:06:47.147Z,94098.84
2022-11-23T07:10:29.824Z,94101.66
2022-11-23T07:14:12.625Z,94102.88
2022-11-23T07:17:55.378Z,94109.28
2022-11-23T07:21:38.046Z,94103.69
2022-11-23T07:25:22.031Z,94112.72
2022-11-23T07:29:04.675Z,94112.91
2022-11-23T07:32:47.309Z,94120.94
2022-11-23T07:36:32.730Z,94120.13
2022-11-23T07:40:17.723Z,94130.78
2022-11-23T07:44:01.695Z,94135.59
2022-11-23T07:47:44.380Z,94137.38
2022-11-23T07:51:27.015Z,94131.00
2022-11-23T07:55:10.470Z,94144.66
2022-11-23T07:58:53.093Z,94137.41
2022-11-23T08:02:37.312Z,94141.34
2022-11-23T08:06:19.947Z,94143.75
2022-11-23T08:10:02.616Z,94145.09
2022-11-23T08:13:45.350Z,94144.03
2022-11-23T08:17:28.004Z,94146.50
2022-11-23T08:21:12.002Z,94151.34
2022-11-23T08:24:54.650Z,94151.38
2022-11-23T08:28:38.364Z,94160.63
2022-11-23T08:32:20.964Z,94147.34
2022-11-23T08:36:05.470Z,94144.97
2022-11-23T08:39:49.549Z,94142.97
2022-11-23T08:43:32.667Z,94151.59
2022-11-23T08:47:15.254Z,94147.00
2022-11-23T08:51:00.729Z,94149.41
2022-11-23T08:54:43.402Z,94155.81
2022-11-23T08:58:27.431Z,94146.19
2022-11-23T09:02:11.396Z,94141.34
2022-11-23T09:05:54.612Z,94145.78
2022-11-23T09:09:37.266Z,94147.78
2022-11-23T09:13:19.929Z,94150.56
2022-11-23T09:17:04.623Z,94143.72
2022-11-23T09:20:47.258Z,94146.31
2022-11-23T09:24:30.067Z,94144.94
2022-11-23T09:28:14.813Z,94137.50
2022-11-23T09:31:57.464Z,94141.72
2022-11-23T09:35:43.956Z,94141.72
2022-11-23T09:39:26.923Z,94139.28
2022-11-23T09:43:32.988Z,94136.31
2022-11-23T09:47:28.345Z,94150.53
2022-11-23T09:51:16.091Z,94132.44
2022-11-23T09:55:05.363Z,94141.69
2022-11-23T09:58:48.221Z,94143.66
2022-11-23T10:02:32.031Z,94134.78
2022-11-23T10:06:20.696Z,94130.78
2022-11-23T10:10:11.308Z,94130.38
2022-11-23T10:13:58.871Z,94128.53
2022-11-23T10:18:04.596Z,94123.47
2022-11-23T10:21:53.772Z,94124.22
2022-11-23T10:25:42.609Z,94117.75
2022-11-23T10:29:29.692Z,94112.72
2022-11-23T10:33:19.380Z,94113.63
2022-11-23T10:37:04.211Z,94101.84
2022-11-23T10:41:01.656Z,94096.63
2022-11-23T10:44:47.104Z,94092.59
2022-11-23T10:48:35.486Z,94098.81
2022-11-23T10:52:33.436Z,94099.38
2022-11-23T10:56:16.138Z,94081.25
2022-11-23T11:00:00.345Z,94085.38
2022-11-23T11:03:43.665Z,94081.63
2022-11-23T11:07:31.041Z,94084.97
2022-11-23T11:11:23.758Z,94085.31
2022-11-23T11:15:18.157Z,94075.75
2022-11-23T11:19:01.567Z,94078.09
2022-11-23T11:22:47.905Z,94075.03
2022-11-23T11:26:32.213Z,94082.31
2022-11-23T11:30:23.873Z,94074.16
2022-11-23T11:34:15.625Z,94068.13
2022-11-23T11:38:03.876Z,94068.81
2022-11-23T11:41:46.790Z,94071.00
2022-11-23T11:45:34.142Z,94069.09
2022-11-23T11:49:20.240Z,94054.47
2022-11-23T11:53:07.250Z,94059.38
2022-11-23T11:56:52.002Z,94061.22
2022-11-23T12:00:35.679Z,94040.72
2022-11-23T12:04:21.334Z,94039.06
2022-11-23T12:08:12.658Z,94043.84
2022-11-23T12:11:58.015Z,94038.25
2022-11-23T12:15:50.689Z,94035.50
2022-11-23T12:19:37.543Z,94044.94
2022-11-23T12:23:30.697Z,94034.28
2022-11-23T12:27:21.235Z,94035.63
2022-11-23T12:31:09.474Z,94033.16
2022-11-23T12:35:21.997Z,94024.59
2022-11-23T12:39:11.165Z,94031.78
2022-11-23T12:43:00.258Z,94021.03
2022-11-23T12:46:47.604Z,94030.09
2022-11-23T12:50:36.340Z,94029.31
2022-11-23T12:54:38.914Z,94025.19
2022-11-23T12:58:24.441Z,94021.28
2022-11-23T13:02:15.061Z,94026.22
2022-11-23T13:06:37.550Z,94028.09
2022-11-23T13:10:29.014Z,94023.22
2022-11-23T13:14:20.096Z,94026.44
2022-11-23T13:18:09.776Z,94015.09
2022-11-23T13:21:52.685Z,94024.50
2022-11-23T13:25:40.150Z,94014.06
2022-11-23T13:29:48.471Z,94015.00
2022-11-23T13:33:38.727Z,94017.09
2022-11-23T13:37:24.185Z,94020.38
2022-11-23T13:41:40.168Z,94024.66
2022-11-23T13:45:29.577Z,94012.63
2022-11-23T13:49:30.675Z,94009.47
2022-11-23T13:53:23.022Z,93996.81
2022-11-23T13:57:12.935Z,94000.13
2022-11-23T14:00:58.378Z,93990.78
2022-11-23T14:04:42.444Z,93992.03
2022-11-23T14:08:26.039Z,93996.69
2022-11-23T14:12:18.730Z,93998.38
2022-11-23T14:16:04.698Z,93996.56
2022-11-23T14:20:02.771Z,93998.41
2022-11-23T14:23:58.507Z,94005.53
2022-11-23T14:27:48.573Z,94004.59
2022-11-23T14:31:39.188Z,94007.13
2022-11-23T14:35:27.012Z,94009.19
2022-11-23T14:39:39.594Z,94011.22
2022-11-23T14:43:22.325Z,94010.06
2022-11-23T14:47:10.790Z,94005.28
2022-11-23T14:50:57.882Z,94009.75
2022-11-23T14:54:40.593Z,94013.13
2022-11-23T14:58:25.390Z,94010.97
2022-11-23T15:02:16.877Z,94017.16
2022-11-23T15:06:07.865Z,94021.75
2022-11-23T15:09:52.522Z,94015.31
2022-11-23T15:13:44.117Z,94016.09
2022-11-23T15:17:29.246Z,94012.47
2022-11-23T15:21:22.570Z,94012.38
2022-11-23T15:25:10.025Z,94021.41
2022-11-23T15:28:53.157Z,94027.72
2022-11-23T15:32:37.290Z,94017.22
2022-11-23T15:36:24.361Z,94024.75
2022-11-23T15:40:12.779Z,94029.13
2022-11-23T15:43:58.980Z,94020.09
2022-11-23T15:47:43.058Z,94018.34
2022-11-23T15:51:27.986Z,94017.81
2022-11-23T15:55:15.204Z,94020.44
2022-11-23T15:58:58.639Z,94021.59
2022-11-23T16:02:44.582Z,94019.84
2022-11-23T16:06:38.259Z,94020.63
2022-11-23T16:10:22.631Z,94008.03
2022-11-23T16:14:16.331Z,94021.63
2022-11-23T16:18:00.658Z,94023.75
2022-11-23T16:21:45.659Z,94016.47
2022-11-23T16:25:29.889Z,94032.72
2022-11-23T16:29:21.980Z,94028.78
2022-11-23T16:33:06.622Z,94032.88
2022-11-23T16:36:49.311Z,94033.00
2022-11-23T16:40:32.025Z,94041.25
2022-11-23T16:44:14.756Z,94034.19
2022-11-23T16:48:00.049Z,94040.16
2022-11-23T16:51:44.190Z,94032.81
2022-11-23T16:55:26.833Z,94033.28
2022-11-23T16:59:16.373Z,94038.16
2022-11-23T17:02:59.338Z,94028.97
2022-11-23T17:06:42.816Z,94037.25
2022-11-23T17:10:27.066Z,94028.81
2022-11-23T17:14:16.328Z,94023.69
2022-11-23T17:18:03.755Z,94039.84
2022-11-23T17:21:46.503Z,94016.38
2022-11-23T17:25:30.931Z,94028.69
2022-11-23T17:29:14.862Z,94036.06
2022-11-23T17:32:57.673Z,94027.06
2022-11-23T17:36:40.798Z,94030.59
2022-11-23T17:40:24.587Z,94047.94
2022-11-23T17:44:10.421Z,94054.72
2022-11-23T17:47:53.389Z,94052.59
2022-11-23T17:51:36.106Z,94061.28
2022-11-23T17:55:19.201Z,94057.50
2022-11-23T17:59:02.056Z,94065.53
2022-11-23T18:02:49.164Z,94057.94
2022-11-23T18:06:31.948Z,94072.78
2022-11-23T18:10:14.638Z,94063.59
2022-11-23T18:13:57.264Z,94066.41
2022-11-23T18:17:40.251Z,94060.19
2022-11-23T18:21:24.546Z,94062.44
2022-11-23T18:25:07.935Z,94080.06
2022-11-23T18:28:51.103Z,94080.06
2022-11-23T18:32:33.836Z,94089.31
2022-11-23T18:36:16.627Z,94097.28
2022-11-23T18:40:00.699Z,94110.94
2022-11-23T18:43:43.415Z,94111.53
2022-11-23T18:47:26.079Z,94113.31
2022-11-23T18:51:11.772Z,94112.13
2022-11-23T18:54:54.538Z,94130.56
2022-11-23T18:58:39.704Z,94139.41
2022-11-23T19:02:22.338Z,94139.03
2022-11-23T19:06:05.736Z,94139.22
2022-11-23T19:09:48.399Z,94155.06
2022-11-23T19:13:33.612Z,94168.69
2022-11-23T19:17:17.731Z,94184.94
2022-11-23T19:21:00.539Z,94203.22
2022-11-23T19:24:43.176Z,94193.19
2022-11-23T19:28:26.091Z,94194.38
2022-11-23T19:32:08.801Z,94215.22
2022-11-23T19:35:52.893Z,94228.88
2022-11-23T19:39:36.209Z,94221.59
2022-11-23T19:43:19.298Z,94245.44
2022-11-23T19:47:03.793Z,94264.28
2022-11-23T19:51:00.152Z,94263.25
2022-11-23T19:54:45.901Z,94275.66
2022-11-23T19:58:31.045Z,94278.88
2022-11-23T20:02:22.167Z,94286.88
2022-11-23T20:06:09.966Z,94295.69
2022-11-23T20:09:53.409Z,94291.28
2022-11-23T20:13:36.691Z,94300.31
2022-11-23T20:17:19.404Z,94316.34
2022-11-23T20:21:02.198Z,94333.78
2022-11-23T20:24:46.327Z,94334.13
2022-11-23T20:28:29.237Z,94348.19
2022-11-23T20:32:12.704Z,94355.22
2022-11-23T20:35:57.194Z,94371.44
2022-11-23T20:39:43.699Z,94367.00
2022-11-23T20:43:27.778Z,94364.56
2022-11-23T20:47:10.499Z,94371.38
2022-11-23T20:50:53.265Z,94381.81
2022-11-23T20:54:36.658Z,94393.84
2022-11-23T20:58:20.926Z,94383.84
2022-11-23T21:02:04.993Z,94399.38
2022-11-23T21:05:47.750Z,94415.06
2022-11-23T21:09:33.145Z,94402.34
2022-11-23T21:13:48.486Z,94419.88
2022-11-23T21:17:33.548Z,94410.44
2022-11-23T21:21:16.593Z,94410.00
2022-11-23T21:24:59.455Z,94406.13
2022-11-23T21:28:43.305Z,94398.75
2022-11-23T21:32:26.240Z,94405.56
2022-11-23T21:36:13.101Z,94404.81
2022-11-23T21:39:55.844Z,94405.19
2022-11-23T21:43:40.862Z,94404.81
2022-11-23T21:47:26.319Z,94402.66
2022-11-23T21:51:13.065Z,94409.00
2022-11-23T21:54:55.928Z,94403.66
2022-11-23T21:58:38.935Z,94407.53
2022-11-23T22:02:21.812Z,94404.94
2022-11-23T22:06:04.991Z,94420.22
2022-11-23T22:09:49.119Z,94422.25
2022-11-23T22:13:36.751Z,94437.88
2022-11-23T22:17:20.179Z,94439.03
2022-11-23T22:21:07.233Z,94432.91
2022-11-23T22:24:52.460Z,94424.66
2022-11-23T22:28:36.462Z,94421.75
2022-11-23T22:32:29.042Z,94433.41
2022-11-23T22:36:22.140Z,94422.97
2022-11-23T22:40:10.824Z,94441.06
2022-11-23T22:43:59.684Z,94437.09
2022-11-23T22:47:42.505Z,94461.59
2022-11-23T22:51:27.007Z,94434.13
2022-11-23T22:55:11.905Z,94448.00
2022-11-23T22:58:57.942Z,94461.66
2022-11-23T23:02:40.921Z,94487.03
2022-11-23T23:06:25.032Z,94481.44
2022-11-23T23:10:12.720Z,94485.88
2022-11-23T23:13:55.891Z,94506.16
2022-11-23T23:17:39.140Z,94522.03
2022-11-23T23:21:24.338Z,94501.56
2022-11-23T23:25:08.387Z,94522.06
2022-11-23T23:28:54.603Z,94508.81
2022-11-23T23:32:39.988Z,94523.31
2022-11-23T23:36:24.370Z,94529.75
2022-11-23T23:40:12.637Z,94537.19
2022-11-23T23:43:57.022Z,94549.44
2022-11-23T23:47:39.952Z,94571.56
2022-11-23T23:51:25.343Z,94568.72
2022-11-23T23:55:10.767Z,94562.34
2022-11-23T23:58:53.896Z,94561.34
